Time;durP1;ratioP1;P1;durP2;ratioP2;P2;SDS_P1;SDS_P2;PMS_P1;PMS_P2;Temp;Humidity;BMP_temperature;BMP_pressure;BME280_temperature;BME280_humidity;BME280_pressure;Samples;Min_cycle;Max_cycle;Signal;HPM_P1;HPM_P2
2022/11/07 00:00:09;;;;;;;15.63;8.10;;;10.50;99.90;;;;;;4998519;28;20504;-71
2022/11/07 00:02:34;;;;;;;14.23;7.33;;;10.50;99.90;;;;;;5020924;28;20077;-68
2022/11/07 00:05:01;;;;;;;17.33;8.13;;;10.50;99.90;;;;;;5016779;28;20144;-69
2022/11/07 00:07:27;;;;;;;14.85;7.25;;;10.40;99.90;;;;;;5019922;28;21740;-69
2022/11/07 00:09:53;;;;;;;18.17;8.30;;;10.50;99.90;;;;;;5015991;28;20053;-69
2022/11/07 00:12:18;;;;;;;18.40;8.18;;;10.50;99.90;;;;;;4993351;28;20419;-70
2022/11/07 00:14:44;;;;;;;18.83;9.13;;;10.50;99.90;;;;;;4998554;28;20050;-69
2022/11/07 00:17:09;;;;;;;18.48;9.32;;;10.60;99.90;;;;;;4995611;28;20054;-69
2022/11/07 00:19:35;;;;;;;19.00;9.82;;;10.50;99.90;;;;;;4994887;28;20045;-70
2022/11/07 00:22:01;;;;;;;15.48;8.50;;;10.60;99.90;;;;;;4997753;28;20386;-70
2022/11/07 00:24:27;;;;;;;18.15;9.48;;;10.60;99.90;;;;;;5001908;28;20049;-71
2022/11/07 00:26:52;;;;;;;19.95;9.20;;;10.60;99.90;;;;;;5000124;28;20120;-71
2022/11/07 00:29:19;;;;;;;19.75;7.97;;;10.70;99.90;;;;;;4998989;28;20033;-70
2022/11/07 00:31:46;;;;;;;16.35;8.48;;;10.60;99.90;;;;;;5012915;28;20050;-70
2022/11/07 00:34:12;;;;;;;22.65;8.60;;;10.60;99.90;;;;;;5018360;28;20500;-70
2022/11/07 00:36:38;;;;;;;15.80;8.80;;;10.60;99.90;;;;;;5003058;28;20497;-70
2022/11/07 00:39:04;;;;;;;18.10;8.70;;;10.60;99.90;;;;;;5017552;28;20052;-70
2022/11/07 00:41:30;;;;;;;18.33;8.05;;;10.60;99.90;;;;;;5017470;28;20584;-69
2022/11/07 00:43:56;;;;;;;14.30;7.70;;;10.60;99.90;;;;;;5001986;28;21523;-70
2022/11/07 00:46:22;;;;;;;13.68;7.13;;;10.70;99.90;;;;;;4993022;28;20870;-70
2022/11/07 00:48:48;;;;;;;12.40;6.97;;;10.60;99.90;;;;;;5001587;28;20049;-70
2022/11/07 00:51:17;;;;;;;10.90;6.53;;;10.60;99.90;;;;;;4999255;28;20492;-70
2022/11/07 00:53:43;;;;;;;14.18;6.93;;;10.60;99.90;;;;;;5000426;28;20102;-71
2022/11/07 00:56:11;;;;;;;17.02;6.10;;;10.50;99.90;;;;;;5015491;28;20049;-71
2022/11/07 00:58:37;;;;;;;14.75;6.10;;;10.50;99.90;;;;;;4994816;28;20041;-70
2022/11/07 01:01:08;;;;;;;12.68;6.15;;;10.60;99.90;;;;;;5013942;28;20136;-70
2022/11/07 01:06:18;;;;;;;17.13;7.80;;;10.50;99.90;;;;;;5015814;28;20123;-70
2022/11/07 01:08:43;;;;;;;16.23;7.53;;;10.60;99.90;;;;;;5018465;28;20055;-70
2022/11/07 01:11:09;;;;;;;18.45;6.30;;;10.60;99.90;;;;;;4999312;28;20049;-69
2022/11/07 01:13:35;;;;;;;13.20;6.45;;;10.60;99.90;;;;;;4999350;28;20127;-70
2022/11/07 01:16:01;;;;;;;17.92;7.63;;;10.60;99.90;;;;;;5012941;28;20073;-71
2022/11/07 01:18:27;;;;;;;17.63;6.63;;;10.70;99.90;;;;;;5012282;28;20125;-69
2022/11/07 01:20:52;;;;;;;17.90;6.53;;;10.60;99.90;;;;;;5019157;28;20041;-70
2022/11/07 01:23:18;;;;;;;24.58;7.93;;;10.70;99.90;;;;;;4995816;28;20282;-70
2022/11/07 01:25:44;;;;;;;15.68;7.10;;;10.70;99.90;;;;;;5018066;28;20053;-70
2022/11/07 01:28:10;;;;;;;18.17;8.15;;;10.70;99.90;;;;;;5014955;28;20133;-71
2022/11/07 01:30:41;;;;;;;20.50;7.70;;;10.70;99.90;;;;;;4996921;28;20037;-70
2022/11/07 01:33:07;;;;;;;18.00;6.65;;;10.70;99.90;;;;;;4998953;28;20452;-69
2022/11/07 01:35:33;;;;;;;22.88;8.07;;;10.70;99.90;;;;;;4998536;28;20061;-68
2022/11/07 01:37:59;;;;;;;17.55;5.80;;;10.70;99.90;;;;;;5013399;28;20375;-69
2022/11/07 01:40:26;;;;;;;14.13;5.75;;;10.70;99.90;;;;;;5020472;28;20079;-70
2022/11/07 01:42:55;;;;;;;13.23;5.78;;;10.60;99.90;;;;;;5012939;28;20049;-70
2022/11/07 01:45:27;;;;;;;19.70;5.97;;;10.50;99.90;;;;;;5001028;28;20111;-69
2022/11/07 01:47:57;;;;;;;20.02;5.40;;;10.60;99.90;;;;;;5017987;28;20607;-69
2022/11/07 01:50:23;;;;;;;18.08;5.75;;;10.60;99.90;;;;;;4999894;28;20045;-69
2022/11/07 01:52:51;;;;;;;15.73;5.82;;;10.50;99.90;;;;;;4998805;28;20103;-70
2022/11/07 01:55:30;;;;;;;13.75;5.47;;;10.50;99.90;;;;;;4995614;28;20045;-69
2022/11/07 01:58:04;;;;;;;19.13;4.95;;;10.50;99.90;;;;;;4996652;28;20061;-69
2022/11/07 02:00:32;;;;;;;15.77;4.28;;;10.50;99.90;;;;;;4996262;28;20088;-70
2022/11/07 02:03:03;;;;;;;16.27;5.00;;;10.60;99.90;;;;;;5017899;28;20048;-70
2022/11/07 02:05:37;;;;;;;18.67;5.50;;;10.60;99.90;;;;;;5014702;28;20055;-70
2022/11/07 02:08:06;;;;;;;11.18;5.10;;;10.60;99.90;;;;;;5020417;28;20041;-71
2022/11/07 02:10:34;;;;;;;13.70;5.45;;;10.60;99.90;;;;;;5005009;28;20046;-71
2022/11/07 02:13:01;;;;;;;14.75;5.18;;;10.70;99.90;;;;;;5010045;28;20177;-71
2022/11/07 02:15:27;;;;;;;14.73;5.20;;;10.60;99.90;;;;;;5007156;28;20397;-70
2022/11/07 02:17:55;;;;;;;16.25;5.60;;;10.70;99.90;;;;;;5009107;28;20524;-70
2022/11/07 02:20:21;;;;;;;20.50;5.25;;;10.70;99.90;;;;;;5007572;28;20075;-70
2022/11/07 02:22:52;;;;;;;14.45;4.00;;;10.70;99.90;;;;;;5020723;28;20080;-69
2022/11/07 02:25:19;;;;;;;14.55;4.38;;;10.70;99.90;;;;;;5018421;28;20179;-69
2022/11/07 02:27:48;;;;;;;14.73;4.80;;;10.60;99.90;;;;;;5003367;28;20056;-69
2022/11/07 02:30:26;;;;;;;13.07;5.65;;;10.60;99.90;;;;;;5017123;28;20111;-70
2022/11/07 02:32:52;;;;;;;18.27;5.45;;;10.60;99.90;;;;;;4999885;28;20077;-69
2022/11/07 02:35:36;;;;;;;15.57;5.00;;;10.60;99.90;;;;;;5002429;28;20195;-71
2022/11/07 02:38:12;;;;;;;17.35;4.63;;;10.70;99.90;;;;;;5023604;28;20045;-70
2022/11/07 02:40:39;;;;;;;15.25;4.53;;;10.70;99.90;;;;;;4989441;28;20119;-71
2022/11/07 02:43:08;;;;;;;24.15;5.55;;;10.70;99.90;;;;;;5020256;28;20048;-72
2022/11/07 02:45:36;;;;;;;19.88;4.82;;;10.70;99.90;;;;;;5023458;28;20457;-72
2022/11/07 02:48:02;;;;;;;24.13;5.78;;;10.70;99.90;;;;;;5018217;28;20112;-72
2022/11/07 02:50:29;;;;;;;17.88;4.40;;;10.70;99.90;;;;;;5004586;28;20034;-71
2022/11/07 02:52:55;;;;;;;13.70;4.53;;;10.70;99.90;;;;;;5002821;28;20041;-72
2022/11/07 02:55:20;;;;;;;15.68;5.00;;;10.70;99.90;;;;;;5017549;28;21885;-72
2022/11/07 02:57:46;;;;;;;19.17;5.22;;;10.70;99.90;;;;;;5019695;28;20504;-71
2022/11/07 03:00:14;;;;;;;14.50;4.63;;;10.60;99.90;;;;;;5001628;28;20326;-70
2022/11/07 03:02:45;;;;;;;20.58;4.68;;;10.70;99.90;;;;;;5002589;28;20125;-69
2022/11/07 03:05:15;;;;;;;12.70;4.43;;;10.70;99.90;;;;;;5020891;28;20315;-69
2022/11/07 03:07:43;;;;;;;16.08;4.30;;;10.80;99.90;;;;;;4998056;28;20139;-70
2022/11/07 03:10:09;;;;;;;13.32;4.35;;;10.70;99.90;;;;;;4997320;28;20046;-71
2022/11/07 03:12:35;;;;;;;16.55;5.07;;;10.80;99.90;;;;;;5015520;28;20049;-70
2022/11/07 03:15:01;;;;;;;18.05;4.20;;;10.70;99.90;;;;;;5018798;28;20050;-72
2022/11/07 03:17:27;;;;;;;15.18;4.07;;;10.70;99.90;;;;;;4999767;28;20041;-70
2022/11/07 03:19:52;;;;;;;14.90;4.15;;;10.70;99.90;;;;;;5020978;28;20045;-70
2022/11/07 03:22:18;;;;;;;18.55;3.80;;;10.80;99.90;;;;;;5001825;28;20041;-70
2022/11/07 03:24:43;;;;;;;12.93;3.75;;;10.80;99.90;;;;;;5018657;28;21463;-70
2022/11/07 03:27:09;;;;;;;21.52;3.58;;;10.70;99.90;;;;;;5002102;28;20519;-71
2022/11/07 03:29:35;;;;;;;15.77;3.90;;;10.70;99.90;;;;;;5018082;28;20052;-70
2022/11/07 03:32:00;;;;;;;17.27;3.75;;;10.70;99.90;;;;;;5019096;28;20045;-70
2022/11/07 03:34:26;;;;;;;21.77;3.85;;;10.70;99.90;;;;;;5002810;28;20046;-70
2022/11/07 03:36:54;;;;;;;9.60;3.03;;;10.80;99.90;;;;;;4997478;28;20065;-70
2022/11/07 03:39:20;;;;;;;16.92;3.50;;;10.70;99.90;;;;;;5000990;28;20048;-70
2022/11/07 03:41:46;;;;;;;19.35;3.38;;;10.70;99.90;;;;;;5014779;28;20061;-70
2022/11/07 03:44:11;;;;;;;14.25;3.05;;;10.70;99.90;;;;;;4998707;28;20124;-70
2022/11/07 03:46:37;;;;;;;11.68;3.33;;;10.70;99.90;;;;;;4999667;28;20099;-70
2022/11/07 03:49:02;;;;;;;11.75;3.45;;;10.70;99.90;;;;;;5000957;28;20069;-70
2022/11/07 03:51:28;;;;;;;13.80;3.22;;;10.70;99.90;;;;;;5014930;28;20050;-70
2022/11/07 03:53:54;;;;;;;21.33;3.28;;;10.60;99.90;;;;;;5003632;28;20320;-69
2022/11/07 03:56:19;;;;;;;13.55;3.40;;;10.60;99.90;;;;;;5000223;28;20045;-69
2022/11/07 03:58:45;;;;;;;11.85;3.00;;;10.60;99.90;;;;;;5021845;28;20148;-70
2022/11/07 04:01:12;;;;;;;21.23;4.20;;;10.60;99.90;;;;;;5015376;28;20455;-70
2022/11/07 04:03:37;;;;;;;13.32;3.70;;;10.60;99.90;;;;;;5001552;28;20056;-70
2022/11/07 04:06:03;;;;;;;17.50;3.85;;;10.50;99.90;;;;;;5005627;28;20488;-71
2022/11/07 04:08:29;;;;;;;17.10;4.03;;;10.60;99.90;;;;;;5023560;28;20105;-71
2022/11/07 04:10:54;;;;;;;17.15;3.92;;;10.60;99.90;;;;;;5018719;28;20057;-72
2022/11/07 04:17:17;;;;;;;16.73;5.13;;;10.70;99.90;;;;;;4999083;28;20729;-72
2022/11/07 04:18:53;;;;;;;22.73;5.07;;;10.70;99.90;;;;;;5019870;28;20187;-72
2022/11/07 04:21:19;;;;;;;20.40;5.45;;;10.80;99.90;;;;;;5000779;28;20056;-70
2022/11/07 04:23:45;;;;;;;17.65;4.63;;;10.80;99.90;;;;;;5024965;28;20301;-70
2022/11/07 04:28:55;;;;;;;11.32;3.20;;;10.70;99.90;;;;;;4995859;28;20085;-70
2022/11/07 04:31:21;;;;;;;13.93;4.95;;;10.70;99.90;;;;;;5001249;28;20137;-71
2022/11/07 04:33:47;;;;;;;15.48;4.95;;;10.80;99.90;;;;;;5018442;28;20313;-71
2022/11/07 04:36:13;;;;;;;23.63;5.47;;;10.80;99.90;;;;;;5018392;28;20266;-71
2022/11/07 04:38:38;;;;;;;15.32;4.20;;;10.80;99.90;;;;;;5017455;28;20110;-70
2022/11/07 04:41:04;;;;;;;15.55;4.55;;;10.80;99.90;;;;;;5014306;28;20128;-70
2022/11/07 04:43:30;;;;;;;12.75;4.53;;;10.90;99.90;;;;;;5017201;28;20227;-70
2022/11/07 04:45:56;;;;;;;12.75;3.97;;;10.90;99.90;;;;;;4996458;28;20216;-70
2022/11/07 04:48:24;;;;;;;21.00;4.85;;;10.80;99.90;;;;;;5015559;28;20041;-68
2022/11/07 04:50:50;;;;;;;21.08;4.35;;;10.90;99.90;;;;;;5017350;28;20057;-70
2022/11/07 04:53:17;;;;;;;17.70;4.55;;;10.80;99.90;;;;;;5014327;28;20056;-69
2022/11/07 04:55:43;;;;;;;16.80;3.63;;;10.70;99.90;;;;;;5000551;28;20106;-70
2022/11/07 04:58:09;;;;;;;15.02;4.45;;;10.80;99.90;;;;;;4998684;28;20128;-69
2022/11/07 05:00:35;;;;;;;21.25;4.35;;;10.70;99.90;;;;;;5016538;28;20068;-69
2022/11/07 05:03:01;;;;;;;14.73;3.65;;;10.70;99.90;;;;;;5017023;28;20049;-69
2022/11/07 05:05:27;;;;;;;17.85;4.63;;;10.70;99.90;;;;;;5020533;28;20042;-68
2022/11/07 05:07:53;;;;;;;10.50;3.58;;;10.60;99.90;;;;;;5014902;28;20069;-69
2022/11/07 05:10:28;;;;;;;14.80;3.83;;;10.60;99.90;;;;;;5016612;28;20505;-69
2022/11/07 05:12:55;;;;;;;11.65;3.22;;;10.50;99.90;;;;;;5019049;28;20052;-69
2022/11/07 05:15:23;;;;;;;13.55;3.55;;;10.50;99.90;;;;;;5013853;28;26337;-69
2022/11/07 05:17:49;;;;;;;14.90;3.55;;;10.60;99.90;;;;;;5016115;28;20050;-69
2022/11/07 05:20:31;;;;;;;13.73;3.40;;;10.60;99.90;;;;;;5002104;28;20385;-71
2022/11/07 05:23:16;;;;;;;16.95;3.83;;;10.60;99.90;;;;;;5001464;28;20076;-70
2022/11/07 05:25:52;;;;;;;15.02;4.20;;;10.60;99.90;;;;;;4999273;28;20045;-69
2022/11/07 05:28:23;;;;;;;13.98;3.78;;;10.70;99.90;;;;;;5016581;28;20065;-69
2022/11/07 05:30:49;;;;;;;14.35;3.75;;;10.70;99.90;;;;;;4998213;28;20041;-69
2022/11/07 05:33:16;;;;;;;13.00;3.58;;;10.70;99.90;;;;;;5015984;28;20064;-69
2022/11/07 05:35:43;;;;;;;15.68;3.55;;;10.70;99.90;;;;;;5019623;28;20108;-69
2022/11/07 05:38:09;;;;;;;13.40;3.65;;;10.60;99.90;;;;;;5014057;28;21777;-70
2022/11/07 05:40:35;;;;;;;15.52;3.38;;;10.60;99.90;;;;;;5014601;28;20080;-69
2022/11/07 05:43:04;;;;;;;9.80;2.33;;;10.50;99.90;;;;;;4996938;28;20065;-70
2022/11/07 05:45:30;;;;;;;11.82;2.42;;;10.60;99.90;;;;;;4996459;28;20060;-70
2022/11/07 05:48:01;;;;;;;13.48;2.70;;;10.50;99.90;;;;;;5010376;28;20092;-70
2022/11/07 05:50:27;;;;;;;12.80;2.90;;;10.50;99.90;;;;;;5013598;28;20056;-69
2022/11/07 05:52:54;;;;;;;10.35;3.10;;;10.50;99.90;;;;;;5013820;28;20540;-70
2022/11/07 05:55:20;;;;;;;15.35;3.90;;;10.60;99.90;;;;;;4998051;28;20064;-70
2022/11/07 05:57:46;;;;;;;11.02;3.10;;;10.50;99.90;;;;;;5014537;28;20049;-70
2022/11/07 06:00:12;;;;;;;15.10;4.00;;;10.60;99.90;;;;;;4998642;28;20111;-71
2022/11/07 06:02:38;;;;;;;14.02;5.05;;;10.50;99.90;;;;;;5016431;28;20057;-70
2022/11/07 06:05:04;;;;;;;12.82;4.28;;;10.60;99.90;;;;;;4999129;28;20398;-71
2022/11/07 06:07:34;;;;;;;11.07;3.30;;;10.50;99.90;;;;;;4999135;28;20097;-68
2022/11/07 06:10:00;;;;;;;16.30;3.47;;;10.50;99.90;;;;;;5002319;28;20060;-69
2022/11/07 06:12:26;;;;;;;7.93;3.20;;;10.60;99.90;;;;;;4995948;28;20046;-69
2022/11/07 06:14:54;;;;;;;9.68;3.15;;;10.60;99.90;;;;;;5003085;28;20042;-70
2022/11/07 06:17:20;;;;;;;11.77;3.40;;;10.70;99.90;;;;;;5014820;28;20534;-69
2022/11/07 06:19:46;;;;;;;11.52;2.97;;;10.70;99.90;;;;;;5014853;28;20521;-70
2022/11/07 06:22:11;;;;;;;11.13;3.47;;;10.70;99.90;;;;;;4993524;28;20076;-70
2022/11/07 06:24:37;;;;;;;11.70;3.47;;;10.70;99.90;;;;;;5018451;28;20083;-70
2022/11/07 06:27:03;;;;;;;13.38;3.70;;;10.70;99.90;;;;;;4987910;28;20050;-69
2022/11/07 06:29:28;;;;;;;9.35;3.58;;;10.70;99.90;;;;;;5020282;28;20045;-73
2022/11/07 06:31:54;;;;;;;18.65;5.60;;;10.80;99.90;;;;;;5009043;28;20045;-71
2022/11/07 06:34:20;;;;;;;14.18;4.50;;;10.80;99.90;;;;;;5000816;28;20519;-74
2022/11/07 06:36:46;;;;;;;16.67;5.28;;;10.80;99.90;;;;;;5014150;28;20459;-72
2022/11/07 06:39:11;;;;;;;14.55;4.93;;;10.80;99.90;;;;;;5014364;28;20053;-70
2022/11/07 06:41:37;;;;;;;17.60;4.90;;;10.80;99.90;;;;;;5011925;28;20076;-71
2022/11/07 06:44:03;;;;;;;11.70;5.32;;;10.80;99.90;;;;;;5012594;28;20057;-72
2022/11/07 06:46:28;;;;;;;15.52;5.18;;;10.80;99.90;;;;;;5008550;28;20063;-72
2022/11/07 06:48:55;;;;;;;20.95;6.22;;;10.90;99.90;;;;;;5017747;28;20053;-70
2022/11/07 06:51:24;;;;;;;21.58;6.68;;;10.90;99.90;;;;;;5017331;28;20057;-71
2022/11/07 06:53:50;;;;;;;17.00;6.07;;;10.90;99.90;;;;;;4995738;28;20558;-71
2022/11/07 06:56:16;;;;;;;18.77;6.22;;;10.80;99.90;;;;;;5009978;28;20049;-72
2022/11/07 06:58:41;;;;;;;15.25;5.55;;;10.90;99.90;;;;;;5019944;28;20087;-71
2022/11/07 07:01:12;;;;;;;19.02;6.03;;;10.90;99.90;;;;;;5015809;28;20469;-73
2022/11/07 07:03:38;;;;;;;16.95;6.35;;;10.80;99.90;;;;;;5019740;28;20393;-73
2022/11/07 07:06:07;;;;;;;13.93;5.95;;;10.80;99.90;;;;;;5022586;28;20037;-73
2022/11/07 07:08:33;;;;;;;18.70;6.10;;;10.80;99.90;;;;;;5018860;28;20053;-72
2022/11/07 07:11:03;;;;;;;18.17;5.65;;;10.80;99.90;;;;;;5024930;28;20037;-73
2022/11/07 07:13:29;;;;;;;18.88;5.85;;;10.70;99.90;;;;;;5018019;28;20099;-72
2022/11/07 07:15:56;;;;;;;17.05;6.40;;;10.80;99.90;;;;;;5018462;28;20485;-71
2022/11/07 07:18:25;;;;;;;21.67;6.50;;;10.80;99.90;;;;;;5021072;28;20041;-73
2022/11/07 07:21:00;;;;;;;16.92;6.10;;;10.80;99.90;;;;;;4999264;28;20140;-72
2022/11/07 07:23:26;;;;;;;19.63;4.82;;;10.80;99.90;;;;;;5010249;28;20135;-72
2022/11/07 07:25:55;;;;;;;18.38;5.47;;;10.90;99.90;;;;;;5006267;28;20142;-72
2022/11/07 07:28:20;;;;;;;13.43;4.57;;;10.90;99.90;;;;;;5002655;28;20061;-71
2022/11/07 07:30:46;;;;;;;16.88;5.45;;;10.90;99.90;;;;;;5007169;28;20401;-72
2022/11/07 07:33:12;;;;;;;17.73;5.07;;;10.80;99.90;;;;;;5024294;28;20600;-72
2022/11/07 07:35:37;;;;;;;16.35;5.63;;;10.90;99.90;;;;;;5004458;28;20516;-73
2022/11/07 07:38:03;;;;;;;15.07;5.40;;;10.90;99.90;;;;;;5007261;28;20499;-71
2022/11/07 07:40:29;;;;;;;21.02;6.00;;;11.00;99.90;;;;;;5007757;28;20057;-70
2022/11/07 07:42:54;;;;;;;21.02;6.85;;;11.00;99.90;;;;;;5021739;28;20045;-68
2022/11/07 07:45:20;;;;;;;18.42;5.32;;;11.00;99.90;;;;;;5026918;28;20064;-72
2022/11/07 07:47:46;;;;;;;14.60;6.05;;;11.00;99.90;;;;;;5021955;28;20540;-72
2022/11/07 07:50:12;;;;;;;21.38;5.95;;;11.00;99.90;;;;;;5006995;28;20180;-69
2022/11/07 07:52:38;;;;;;;21.27;7.68;;;11.00;99.90;;;;;;5026621;28;20379;-72
2022/11/07 07:55:07;;;;;;;24.48;6.95;;;11.00;99.90;;;;;;5023565;28;20300;-72
2022/11/07 07:57:46;;;;;;;22.02;6.15;;;11.00;99.90;;;;;;5026502;28;20045;-72
2022/11/07 08:00:12;;;;;;;16.33;6.20;;;11.00;99.90;;;;;;5006660;28;20042;-73
2022/11/07 08:02:38;;;;;;;22.85;6.78;;;11.10;99.90;;;;;;5027659;28;20048;-72
2022/11/07 08:05:04;;;;;;;20.48;6.30;;;11.00;99.90;;;;;;5009281;28;20090;-72
2022/11/07 08:07:30;;;;;;;24.80;6.80;;;11.10;99.90;;;;;;5010318;28;20409;-71
2022/11/07 08:09:55;;;;;;;22.58;7.45;;;11.10;99.90;;;;;;5024823;28;20050;-72
2022/11/07 08:12:24;;;;;;;25.15;7.50;;;11.10;99.90;;;;;;5022532;28;20049;-71
2022/11/07 08:14:49;;;;;;;20.80;7.50;;;11.20;99.90;;;;;;5004544;28;20042;-72
2022/11/07 08:17:15;;;;;;;21.77;6.40;;;11.20;99.90;;;;;;5017400;28;20045;-72
2022/11/07 08:19:41;;;;;;;18.63;6.38;;;11.30;99.90;;;;;;5006313;28;20045;-73
2022/11/07 08:22:06;;;;;;;23.60;7.55;;;11.30;99.90;;;;;;5024350;28;20513;-72
2022/11/07 08:24:32;;;;;;;27.23;8.05;;;11.20;99.90;;;;;;5004474;28;20041;-72
2022/11/07 08:26:58;;;;;;;28.50;9.13;;;11.30;99.90;;;;;;5002982;28;20093;-74
2022/11/07 08:29:23;;;;;;;31.25;8.95;;;11.30;99.90;;;;;;5026739;28;20087;-73
2022/11/07 08:31:49;;;;;;;26.17;9.35;;;11.30;99.90;;;;;;5013171;28;20057;-73
2022/11/07 08:34:16;;;;;;;28.48;8.45;;;11.40;99.90;;;;;;5017566;28;20049;-74
2022/11/07 08:36:42;;;;;;;33.55;8.40;;;11.30;99.90;;;;;;5000434;28;20046;-71
2022/11/07 08:39:08;;;;;;;22.95;7.10;;;11.30;99.90;;;;;;5019747;28;20041;-71
2022/11/07 08:41:33;;;;;;;22.02;6.80;;;11.40;99.90;;;;;;5002319;28;20046;-70
2022/11/07 08:44:02;;;;;;;20.23;6.57;;;11.30;99.90;;;;;;5019577;28;20049;-71
2022/11/07 08:46:27;;;;;;;23.42;7.07;;;11.30;99.90;;;;;;5009811;28;20048;-71
2022/11/07 08:48:53;;;;;;;22.77;7.60;;;11.30;99.90;;;;;;5002354;28;20095;-72
2022/11/07 08:51:19;;;;;;;25.48;7.13;;;11.40;99.90;;;;;;5003363;28;20099;-71
2022/11/07 08:53:44;;;;;;;24.75;6.50;;;11.40;99.90;;;;;;5020667;28;20045;-71
2022/11/07 08:56:10;;;;;;;25.65;7.10;;;11.40;99.90;;;;;;5002772;28;20123;-71
2022/11/07 08:58:36;;;;;;;28.52;7.18;;;11.40;99.90;;;;;;4998598;28;20492;-72
2022/11/07 09:01:07;;;;;;;23.50;7.25;;;11.40;99.90;;;;;;5015138;28;20066;-72
2022/11/07 09:03:37;;;;;;;22.83;7.47;;;11.40;99.90;;;;;;5021051;28;20084;-71
2022/11/07 09:06:03;;;;;;;20.20;6.63;;;11.50;99.90;;;;;;5021244;28;20037;-71
2022/11/07 09:08:30;;;;;;;19.65;6.35;;;11.50;99.90;;;;;;5000760;28;20175;-71
2022/11/07 09:11:00;;;;;;;24.55;6.40;;;11.50;99.90;;;;;;5019346;28;20096;-72
2022/11/07 09:13:26;;;;;;;17.33;6.13;;;11.50;99.90;;;;;;5018686;28;20141;-70
2022/11/07 09:15:59;;;;;;;19.10;6.00;;;11.60;99.90;;;;;;4998961;28;21399;-72
2022/11/07 09:18:26;;;;;;;16.10;5.72;;;11.60;99.90;;;;;;5008727;28;20072;-72
2022/11/07 09:20:55;;;;;;;19.58;5.63;;;11.60;99.90;;;;;;5018854;28;20052;-71
2022/11/07 09:23:25;;;;;;;20.13;6.32;;;11.60;99.90;;;;;;5015603;28;20041;-72
2022/11/07 09:25:50;;;;;;;20.23;5.88;;;11.70;99.90;;;;;;5022042;28;20049;-72
2022/11/07 09:28:16;;;;;;;18.10;5.55;;;11.60;99.90;;;;;;5020440;28;20034;-71
2022/11/07 09:30:42;;;;;;;21.80;6.07;;;11.70;99.90;;;;;;5000844;28;20199;-71
2022/11/07 09:33:08;;;;;;;22.80;6.03;;;11.60;99.90;;;;;;5019109;28;20128;-72
2022/11/07 09:35:33;;;;;;;16.17;5.20;;;11.70;99.90;;;;;;5018344;28;20133;-72
2022/11/07 09:38:00;;;;;;;19.67;6.55;;;11.70;99.90;;;;;;4999753;28;20056;-71
2022/11/07 09:40:57;;;;;;;18.73;5.20;;;11.80;99.90;;;;;;5002434;28;20041;-72
2022/11/07 09:43:32;;;;;;;16.40;6.18;;;11.70;99.90;;;;;;5021548;28;20048;-72
2022/11/07 09:46:04;;;;;;;20.17;6.60;;;11.80;99.90;;;;;;5020129;28;20037;-72
2022/11/07 09:48:42;;;;;;;18.52;6.25;;;11.80;99.90;;;;;;4995318;28;20058;-68
2022/11/07 09:51:14;;;;;;;22.42;6.18;;;11.90;99.90;;;;;;4995176;28;20042;-70
2022/11/07 09:53:44;;;;;;;17.23;5.53;;;11.80;99.90;;;;;;5000291;28;20445;-71
2022/11/07 09:56:11;;;;;;;17.20;5.60;;;11.80;99.90;;;;;;4996501;28;20125;-71
2022/11/07 09:58:42;;;;;;;22.58;6.07;;;11.90;99.90;;;;;;4996751;28;20430;-71
2022/11/07 10:01:29;;;;;;;22.55;7.65;;;12.00;99.90;;;;;;4989520;28;20045;-71
2022/11/07 10:03:57;;;;;;;29.23;9.23;;;12.00;99.90;;;;;;4992589;28;20517;-71
2022/11/07 10:06:31;;;;;;;12.15;4.95;;;12.00;99.90;;;;;;4994904;28;20068;-71
2022/11/07 10:09:05;;;;;;;21.27;5.30;;;12.00;99.90;;;;;;4993987;28;20153;-71
2022/11/07 10:11:33;;;;;;;19.45;5.95;;;12.00;99.90;;;;;;4986972;28;20117;-70
2022/11/07 10:14:40;;;;;;;23.00;5.97;;;12.00;99.90;;;;;;4988738;28;20061;-70
2022/11/07 10:17:30;;;;;;;16.67;4.78;;;12.10;99.90;;;;;;4989316;28;20127;-71
2022/11/07 10:20:14;;;;;;;14.07;4.72;;;12.10;99.90;;;;;;4993849;28;20520;-71
2022/11/07 10:23:16;;;;;;;17.98;4.47;;;12.20;99.90;;;;;;4999647;28;20541;-71
2022/11/07 10:26:14;;;;;;;14.50;4.80;;;12.30;99.90;;;;;;4994817;28;20076;-70
2022/11/07 10:28:45;;;;;;;17.45;4.50;;;12.30;99.90;;;;;;4996084;28;20121;-71
2022/11/07 10:31:13;;;;;;;30.00;5.18;;;12.30;99.90;;;;;;4999759;28;20097;-68
2022/11/07 10:33:48;;;;;;;18.40;4.90;;;12.30;99.90;;;;;;5002974;28;20053;-72
2022/11/07 10:36:24;;;;;;;21.98;4.90;;;12.30;99.90;;;;;;4998809;28;20038;-71
2022/11/07 10:38:53;;;;;;;18.45;4.75;;;12.40;99.90;;;;;;4998333;28;20044;-70
2022/11/07 10:41:24;;;;;;;23.75;5.78;;;12.30;99.90;;;;;;5001450;28;20046;-71
2022/11/07 10:44:12;;;;;;;16.33;4.82;;;12.40;99.90;;;;;;5002743;28;20226;-71
2022/11/07 10:46:41;;;;;;;17.13;4.30;;;12.40;99.90;;;;;;5002282;28;20049;-71
2022/11/07 10:49:20;;;;;;;17.20;4.60;;;12.50;99.90;;;;;;4982615;28;20386;-72
2022/11/07 10:51:46;;;;;;;15.15;5.03;;;12.50;99.90;;;;;;4983430;28;20050;-71
2022/11/07 10:54:24;;;;;;;21.90;6.47;;;12.50;99.90;;;;;;4979827;28;20046;-71
2022/11/07 10:57:04;;;;;;;16.05;5.43;;;12.50;99.90;;;;;;4982776;28;20050;-71
2022/11/07 10:59:32;;;;;;;20.77;5.50;;;12.50;99.90;;;;;;4977367;28;20035;-71
2022/11/07 11:01:59;;;;;;;10.52;4.45;;;12.50;99.90;;;;;;4982119;28;20039;-71
2022/11/07 11:04:28;;;;;;;16.75;4.63;;;12.50;99.90;;;;;;4976723;28;20133;-71
2022/11/07 11:07:12;;;;;;;20.42;4.93;;;12.50;99.90;;;;;;4979690;28;20042;-71
2022/11/07 11:09:53;;;;;;;15.05;4.38;;;12.60;99.90;;;;;;4985635;28;20049;-71
2022/11/07 11:12:24;;;;;;;21.02;5.28;;;12.60;99.90;;;;;;4983387;28;20049;-71
2022/11/07 11:14:50;;;;;;;21.83;5.13;;;12.60;99.90;;;;;;4977166;28;20042;-71
2022/11/07 11:17:24;;;;;;;14.73;4.72;;;12.60;99.90;;;;;;4979008;28;20050;-72
2022/11/07 11:19:52;;;;;;;19.15;5.18;;;12.60;99.90;;;;;;4985877;28;20050;-70
2022/11/07 11:22:22;;;;;;;19.52;5.30;;;12.60;99.90;;;;;;4981864;28;20742;-71
2022/11/07 11:25:07;;;;;;;17.95;5.20;;;12.60;99.90;;;;;;4982777;28;20046;-71
2022/11/07 11:27:34;;;;;;;20.38;5.07;;;12.60;99.90;;;;;;4981708;28;20065;-71
2022/11/07 11:30:10;;;;;;;15.95;5.70;;;12.70;99.90;;;;;;4987080;28;20081;-72
2022/11/07 11:32:49;;;;;;;17.92;4.70;;;12.70;99.90;;;;;;4983548;28;20586;-70
2022/11/07 11:35:26;;;;;;;18.30;5.32;;;12.70;99.90;;;;;;4983669;28;20042;-72
2022/11/07 11:38:02;;;;;;;16.17;5.22;;;12.70;99.90;;;;;;4979269;28;20149;-71
2022/11/07 11:40:34;;;;;;;16.95;5.60;;;12.80;99.90;;;;;;4985050;28;20089;-71
2022/11/07 11:43:09;;;;;;;17.35;5.03;;;12.80;99.90;;;;;;4985267;28;20050;-71
2022/11/07 11:45:48;;;;;;;12.85;5.07;;;12.90;99.90;;;;;;4978646;28;20042;-71
2022/11/07 11:48:31;;;;;;;18.75;6.10;;;13.00;99.90;;;;;;4995631;28;20065;-70
2022/11/07 11:51:06;;;;;;;15.05;6.00;;;13.20;99.90;;;;;;5001860;28;20040;-70
2022/11/07 11:53:32;;;;;;;12.13;5.25;;;13.20;99.90;;;;;;5000046;28;20042;-71
2022/11/07 11:56:16;;;;;;;17.17;5.35;;;13.20;99.90;;;;;;4997884;28;20077;-69
2022/11/07 11:59:03;;;;;;;14.57;5.32;;;13.30;99.90;;;;;;5002616;28;20038;-69
2022/11/07 12:01:42;;;;;;;13.88;4.82;;;13.30;99.90;;;;;;4993817;28;20103;-69
2022/11/07 12:04:32;;;;;;;9.38;4.95;;;13.40;99.90;;;;;;5000715;28;20563;-69
2022/11/07 12:07:10;;;;;;;21.52;5.60;;;13.40;99.90;;;;;;4997788;28;20736;-70
2022/11/07 12:09:54;;;;;;;16.83;5.88;;;13.40;99.90;;;;;;5000482;28;20058;-70
2022/11/07 12:12:30;;;;;;;;;;;13.50;99.90;;;;;;5004587;28;20054;-70
2022/11/07 12:15:19;;;;;;;17.70;4.57;;;13.60;99.90;;;;;;5005746;28;19996;-70
2022/11/07 12:17:56;;;;;;;12.80;5.15;;;13.70;99.90;;;;;;5004166;28;20045;-70
2022/11/07 12:20:39;;;;;;;15.38;4.57;;;13.60;99.90;;;;;;5001710;28;20052;-71
2022/11/07 12:23:26;;;;;;;14.82;4.53;;;13.80;99.90;;;;;;4996654;28;20127;-71
2022/11/07 12:26:02;;;;;;;13.35;4.70;;;13.80;99.90;;;;;;5003948;28;20072;-70
2022/11/07 12:28:47;;;;;;;14.27;4.22;;;13.80;99.90;;;;;;4997944;28;20054;-71
2022/11/07 12:31:31;;;;;;;10.90;3.92;;;13.80;99.90;;;;;;4994546;28;21511;-72
2022/11/07 12:34:19;;;;;;;13.23;4.55;;;13.80;99.90;;;;;;4995105;28;20061;-72
2022/11/07 12:37:03;;;;;;;11.20;4.30;;;13.80;99.90;;;;;;4994754;28;20072;-72
2022/11/07 12:39:57;;;;;;;18.42;5.22;;;13.80;99.90;;;;;;4998901;28;20089;-72
2022/11/07 12:42:26;;;;;;;23.20;5.20;;;13.80;99.90;;;;;;4996984;28;20095;-72
2022/11/07 12:45:31;;;;;;;16.15;4.30;;;13.80;99.90;;;;;;4999001;28;20061;-72
2022/11/07 12:48:06;;;;;;;18.77;4.63;;;13.70;99.90;;;;;;4999457;28;20052;-73
2022/11/07 12:50:47;;;;;;;16.25;5.07;;;13.60;99.90;;;;;;5003006;28;20061;-73
2022/11/07 12:53:42;;;;;;;20.50;5.47;;;13.60;99.90;;;;;;5003365;28;20050;-71
2022/11/07 12:56:16;;;;;;;15.43;5.72;;;13.50;99.90;;;;;;4999790;28;20049;-71
2022/11/07 12:58:43;;;;;;;22.30;6.15;;;13.40;99.90;;;;;;4995984;28;20085;-71